createdAt,value
2018-03-01T00:02:07.466Z,6.20
2018-03-01T00:04:34.850Z,4.00
2018-03-01T00:07:02.244Z,6.53
2018-03-01T00:09:29.744Z,3.13
2018-03-01T00:11:57.138Z,5.30
2018-03-01T00:14:24.556Z,6.13
2018-03-01T00:16:52.010Z,5.67
2018-03-01T00:19:19.390Z,3.30
2018-03-01T00:21:46.781Z,5.13
2018-03-01T00:24:14.214Z,5.13
2018-03-01T00:26:41.670Z,4.30
2018-03-01T00:29:09.059Z,3.83
2018-03-01T00:31:36.496Z,7.20
2018-03-01T00:34:03.883Z,5.10
2018-03-01T00:36:31.299Z,4.63
2018-03-01T00:38:58.702Z,4.27
2018-03-01T00:41:26.090Z,2.60
2018-03-01T00:43:53.492Z,4.13
2018-03-01T00:46:20.954Z,5.10
2018-03-01T00:48:48.359Z,7.00
2018-03-01T00:51:15.756Z,5.87
2018-03-01T00:53:43.191Z,4.27
2018-03-01T00:56:10.592Z,7.20
2018-03-01T00:58:37.978Z,5.13
2018-03-01T01:01:05.374Z,4.37
2018-03-01T01:03:32.768Z,5.10
2018-03-01T01:06:00.166Z,5.83
2018-03-01T01:08:27.562Z,4.77
2018-03-01T01:10:54.954Z,4.03
2018-03-01T01:13:22.375Z,4.87
2018-03-01T01:15:49.776Z,6.00
2018-03-01T01:18:17.175Z,5.77
2018-03-01T01:20:44.567Z,4.90
2018-03-01T01:23:12.264Z,3.97
2018-03-01T01:25:39.760Z,5.57
2018-03-01T01:28:07.177Z,4.83
2018-03-01T01:30:34.659Z,6.47
2018-03-01T01:33:02.043Z,5.33
2018-03-01T01:35:29.484Z,3.10
2018-03-01T01:37:56.917Z,5.30
2018-03-01T01:40:24.314Z,4.37
2018-03-01T01:42:51.715Z,4.17
2018-03-01T01:45:19.120Z,4.43
2018-03-01T01:47:46.550Z,3.73
2018-03-01T01:50:13.959Z,4.90
2018-03-01T01:52:41.354Z,4.70
2018-03-01T01:55:08.738Z,4.70
2018-03-01T01:57:36.159Z,5.67
2018-03-01T02:00:04.015Z,3.67
2018-03-01T02:02:31.414Z,5.77
2018-03-01T02:04:58.832Z,3.30
2018-03-01T02:07:26.237Z,4.33
2018-03-01T02:09:53.687Z,3.77
2018-03-01T02:12:21.098Z,4.70
2018-03-01T02:14:48.588Z,3.27
2018-03-01T02:17:16.011Z,6.60
2018-03-01T02:19:43.401Z,6.63
2018-03-01T02:22:10.800Z,5.10
2018-03-01T02:24:38.190Z,4.30
2018-03-01T02:27:05.597Z,2.97
2018-03-01T02:29:32.998Z,4.00
2018-03-01T02:32:00.395Z,4.70
2018-03-01T02:34:27.854Z,6.10
2018-03-01T02:36:55.247Z,5.73
2018-03-01T02:39:22.635Z,4.60
2018-03-01T02:41:50.034Z,4.30
2018-03-01T02:44:17.419Z,4.57
2018-03-01T02:46:44.807Z,4.27
2018-03-01T02:49:12.196Z,5.23
2018-03-01T02:51:39.594Z,4.87
2018-03-01T02:54:06.978Z,3.67
2018-03-01T02:56:34.370Z,4.83
2018-03-01T02:59:01.764Z,4.60
2018-03-01T03:01:29.178Z,4.43
2018-03-01T03:03:56.574Z,5.60
2018-03-01T03:06:23.970Z,4.33
2018-03-01T03:08:51.368Z,6.07
2018-03-01T03:11:18.770Z,4.53
2018-03-01T03:13:46.222Z,5.37
2018-03-01T03:16:13.610Z,4.37
2018-03-01T03:18:41.013Z,4.00
2018-03-01T03:21:08.398Z,4.70
2018-03-01T03:23:35.786Z,3.67
2018-03-01T03:26:03.297Z,5.70
2018-03-01T03:28:30.713Z,3.40
2018-03-01T03:30:58.111Z,3.10
2018-03-01T03:33:25.555Z,4.80
2018-03-01T03:35:52.954Z,3.63
2018-03-01T03:38:20.340Z,4.87
2018-03-01T03:40:47.741Z,4.07
2018-03-01T03:43:15.180Z,4.00
2018-03-01T03:45:42.635Z,5.27
2018-03-01T03:48:10.086Z,5.07
2018-03-01T03:50:37.478Z,3.67
2018-03-01T03:53:04.868Z,3.67
2018-03-01T03:55:32.248Z,3.50
2018-03-01T03:57:59.706Z,4.90
2018-03-01T04:00:27.094Z,4.23
2018-03-01T04:02:54.482Z,3.90
2018-03-01T04:05:21.874Z,4.23
2018-03-01T04:07:49.278Z,3.03
2018-03-01T04:10:16.658Z,3.00
2018-03-01T04:12:44.067Z,4.10
2018-03-01T04:15:11.470Z,2.63
2018-03-01T04:17:38.936Z,3.17
2018-03-01T04:20:06.321Z,3.00
2018-03-01T04:22:33.722Z,4.70
2018-03-01T04:25:01.151Z,3.63
2018-03-01T04:27:28.547Z,4.13
2018-03-01T04:29:55.958Z,4.00
2018-03-01T04:32:23.358Z,3.30
2018-03-01T04:34:50.747Z,3.87
2018-03-01T04:37:18.227Z,4.00
2018-03-01T04:39:45.615Z,3.40
2018-03-01T04:42:13.019Z,4.53
2018-03-01T04:44:40.418Z,3.70
2018-03-01T04:47:07.841Z,2.70
2018-03-01T04:49:35.231Z,3.90
2018-03-01T04:52:02.628Z,3.20
2018-03-01T04:54:30.010Z,3.90
2018-03-01T04:56:57.397Z,3.13
2018-03-01T04:59:24.781Z,4.60
2018-03-01T05:01:52.196Z,2.87
2018-03-01T05:04:19.627Z,3.70
2018-03-01T05:06:47.078Z,3.50
2018-03-01T05:09:14.469Z,2.40
2018-03-01T05:11:41.898Z,4.30
2018-03-01T05:14:09.358Z,2.50
2018-03-01T05:16:36.742Z,3.00
2018-03-01T05:19:04.131Z,4.07
2018-03-01T05:21:31.538Z,4.00
2018-03-01T05:23:58.957Z,5.17
2018-03-01T05:26:26.379Z,5.90
2018-03-01T05:28:53.773Z,4.70
2018-03-01T05:31:21.188Z,4.67
2018-03-01T05:33:48.558Z,4.20
2018-03-01T05:36:15.955Z,2.83
2018-03-01T05:38:43.368Z,2.43
2018-03-01T05:41:10.750Z,2.67
2018-03-01T05:43:38.151Z,3.13
2018-03-01T05:46:05.558Z,3.80
2018-03-01T05:48:32.970Z,4.60
2018-03-01T05:51:00.359Z,4.70
2018-03-01T05:53:27.774Z,3.50
2018-03-01T05:55:55.163Z,3.23
2018-03-01T05:58:22.562Z,2.30
2018-03-01T06:00:49.986Z,3.70
2018-03-01T06:03:17.378Z,3.60
2018-03-01T06:05:44.770Z,3.57
2018-03-01T06:08:12.208Z,2.27
2018-03-01T06:10:39.709Z,2.80
2018-03-01T06:13:07.102Z,3.10
2018-03-01T06:15:34.494Z,2.93
2018-03-01T06:18:01.888Z,4.73
2018-03-01T06:20:29.275Z,3.13
2018-03-01T06:22:56.679Z,3.13
2018-03-01T06:25:24.130Z,4.00
2018-03-01T06:27:51.522Z,3.70
2018-03-01T06:30:18.911Z,3.27
2018-03-01T06:32:46.397Z,2.40
2018-03-01T06:35:13.791Z,3.50
2018-03-01T06:37:41.175Z,3.53
2018-03-01T06:40:08.565Z,3.33
2018-03-01T06:42:36.012Z,5.13
2018-03-01T06:45:03.347Z,3.13
2018-03-01T06:47:30.745Z,4.37
2018-03-01T06:49:58.131Z,4.00
2018-03-01T06:52:25.533Z,2.80
2018-03-01T06:54:52.987Z,3.40
2018-03-01T06:57:20.441Z,3.13
2018-03-01T06:59:47.828Z,2.80
2018-03-01T07:02:15.223Z,2.90
2018-03-01T07:04:42.613Z,2.37
2018-03-01T07:07:10.007Z,3.57
2018-03-01T07:09:37.398Z,2.87
2018-03-01T07:12:04.790Z,3.50
2018-03-01T07:14:32.177Z,5.30
2018-03-01T07:16:59.566Z,2.47
2018-03-01T07:19:26.960Z,4.40
2018-03-01T07:21:54.403Z,2.60
2018-03-01T07:24:21.794Z,3.10
2018-03-01T07:26:49.180Z,4.67
2018-03-01T07:29:16.570Z,3.80
2018-03-01T07:31:43.966Z,4.40
2018-03-01T07:34:11.350Z,2.90
2018-03-01T07:36:38.741Z,3.60
2018-03-01T07:39:06.140Z,3.70
2018-03-01T07:41:33.539Z,3.23
2018-03-01T07:44:00.918Z,3.17
2018-03-01T07:46:28.306Z,4.50
2018-03-01T07:48:55.686Z,4.13
2018-03-01T07:51:23.115Z,3.43
2018-03-01T07:53:50.598Z,3.63
2018-03-01T07:56:23.122Z,3.90
2018-03-01T07:58:50.514Z,4.67
2018-03-01T08:01:17.903Z,4.10
2018-03-01T08:03:45.299Z,4.67
2018-03-01T08:06:12.735Z,3.23
2018-03-01T08:08:40.131Z,3.23
2018-03-01T08:11:07.521Z,4.60
2018-03-01T08:13:34.910Z,4.10
2018-03-01T08:16:02.294Z,3.70
2018-03-01T08:18:29.696Z,5.50
2018-03-01T08:20:57.138Z,3.60
2018-03-01T08:23:24.510Z,4.70
2018-03-01T08:25:51.910Z,2.43
2018-03-01T08:28:19.387Z,2.47
2018-03-01T08:30:46.842Z,5.87
2018-03-01T08:33:14.235Z,3.90
2018-03-01T08:35:41.636Z,4.80
2018-03-01T08:38:09.031Z,4.53
2018-03-01T08:40:36.407Z,3.23
2018-03-01T08:43:03.799Z,5.13
2018-03-01T08:45:31.188Z,5.63
2018-03-01T08:47:58.631Z,4.10
2018-03-01T08:50:26.078Z,4.33
2018-03-01T08:52:53.467Z,4.10
2018-03-01T08:55:20.851Z,5.33
2018-03-01T08:57:48.248Z,5.20
2018-03-01T09:00:15.630Z,3.63
2018-03-01T09:02:43.015Z,3.60
2018-03-01T09:05:10.406Z,2.77
2018-03-01T09:07:37.792Z,3.10
2018-03-01T09:10:05.178Z,4.23
2018-03-01T09:12:32.578Z,3.33
2018-03-01T09:15:00.045Z,3.67
2018-03-01T09:17:27.426Z,3.23
2018-03-01T09:19:54.815Z,3.23
2018-03-01T09:22:22.202Z,3.50
2018-03-01T09:24:49.648Z,3.17
2018-03-01T09:27:16.991Z,2.70
2018-03-01T09:29:44.470Z,3.67
2018-03-01T09:32:11.891Z,3.67
2018-03-01T09:34:39.392Z,2.73
2018-03-01T09:37:06.843Z,3.87
2018-03-01T09:39:34.298Z,2.50
2018-03-01T09:42:01.765Z,4.00
2018-03-01T09:44:29.151Z,4.10
2018-03-01T09:46:56.534Z,3.50
2018-03-01T09:49:23.935Z,4.10
2018-03-01T09:51:51.375Z,2.60
2018-03-01T09:54:18.763Z,3.00
2018-03-01T09:56:46.150Z,3.57
2018-03-01T09:59:13.578Z,3.77
2018-03-01T10:01:40.963Z,2.43
2018-03-01T10:04:08.358Z,2.87
2018-03-01T10:06:35.739Z,4.20
2018-03-01T10:09:03.129Z,2.30
2018-03-01T10:11:30.516Z,2.57
2018-03-01T10:13:57.967Z,3.33
2018-03-01T10:16:25.427Z,2.43
2018-03-01T10:18:52.883Z,2.43
2018-03-01T10:21:20.267Z,2.70
2018-03-01T10:23:47.691Z,2.27
2018-03-01T10:26:15.079Z,2.60
2018-03-01T10:28:42.501Z,2.40
2018-03-01T10:31:09.886Z,2.83
2018-03-01T10:33:42.996Z,1.97
2018-03-01T10:36:10.374Z,2.40
2018-03-01T10:38:37.761Z,2.63
2018-03-01T10:41:05.147Z,2.40
2018-03-01T10:43:32.538Z,1.97
2018-03-01T10:45:59.927Z,2.70
2018-03-01T10:48:27.319Z,2.20
2018-03-01T10:50:54.718Z,3.70
2018-03-01T10:53:22.119Z,1.60
2018-03-01T10:55:49.513Z,2.00
2018-03-01T10:58:16.895Z,2.00
2018-03-01T11:00:45.072Z,1.47
2018-03-01T11:03:12.465Z,2.47
2018-03-01T11:05:39.858Z,2.10
2018-03-01T11:08:07.237Z,2.23
2018-03-01T11:10:34.637Z,3.30
2018-03-01T11:13:02.019Z,1.77
2018-03-01T11:15:29.415Z,1.60
2018-03-01T11:17:56.799Z,2.37
2018-03-01T11:20:24.195Z,1.30
2018-03-01T11:22:51.580Z,1.90
2018-03-01T11:25:18.971Z,1.10
2018-03-01T11:27:46.354Z,1.20
2018-03-01T11:30:13.746Z,2.17
2018-03-01T11:32:41.238Z,2.53
2018-03-01T11:35:08.633Z,2.00
2018-03-01T11:37:36.047Z,2.23
2018-03-01T11:40:03.500Z,2.23
2018-03-01T11:42:30.881Z,2.00
2018-03-01T11:44:58.440Z,1.90
2018-03-01T11:47:25.815Z,2.10
2018-03-01T11:49:53.227Z,2.20
2018-03-01T11:52:20.687Z,1.80
2018-03-01T11:54:48.079Z,2.27
2018-03-01T11:57:15.468Z,2.80
2018-03-01T11:59:42.950Z,1.70
2018-03-01T12:02:10.340Z,1.57
2018-03-01T12:04:37.772Z,1.50
2018-03-01T12:07:05.223Z,2.57
2018-03-01T12:09:33.499Z,1.93
2018-03-01T12:12:00.879Z,1.90
2018-03-01T12:14:29.076Z,2.23
2018-03-01T12:16:56.443Z,2.10
2018-03-01T12:19:23.834Z,2.40
2018-03-01T12:21:51.282Z,1.90
2018-03-01T12:24:18.679Z,1.30
2018-03-01T12:26:46.070Z,1.07
2018-03-01T12:29:13.473Z,1.23
2018-03-01T12:31:40.858Z,1.77
2018-03-01T12:34:08.266Z,1.70
2018-03-01T12:36:35.654Z,2.37
2018-03-01T12:39:03.047Z,1.63
2018-03-01T12:41:30.447Z,1.57
2018-03-01T12:43:57.845Z,2.23
2018-03-01T12:46:25.250Z,1.80
2018-03-01T12:48:52.643Z,2.60
2018-03-01T12:51:20.034Z,2.07
2018-03-01T12:53:47.423Z,1.47
2018-03-01T12:56:14.815Z,1.77
2018-03-01T12:58:42.203Z,2.20
2018-03-01T13:01:09.608Z,1.77
2018-03-01T13:03:36.999Z,2.60
2018-03-01T13:06:04.378Z,1.80
2018-03-01T13:08:31.772Z,2.00
2018-03-01T13:10:59.170Z,1.90
2018-03-01T13:13:26.557Z,2.10
2018-03-01T13:15:53.935Z,1.03
2018-03-01T13:18:21.335Z,1.97
2018-03-01T13:20:48.720Z,2.20
2018-03-01T13:23:16.102Z,2.30
2018-03-01T13:25:43.498Z,1.60
2018-03-01T13:28:10.885Z,1.67
2018-03-01T13:30:48.959Z,2.20
2018-03-01T13:33:17.846Z,1.97
2018-03-01T13:35:45.221Z,1.67
2018-03-01T13:38:12.603Z,1.13
2018-03-01T13:40:40.004Z,2.10
2018-03-01T13:43:07.378Z,1.13
2018-03-01T13:45:45.434Z,1.63
2018-03-01T13:48:12.833Z,1.40
2018-03-01T13:50:40.224Z,1.20
2018-03-01T13:53:07.607Z,2.07
2018-03-01T13:55:35.003Z,1.33
2018-03-01T13:58:02.389Z,1.50
2018-03-01T14:00:29.774Z,2.07
2018-03-01T14:02:57.164Z,2.03
2018-03-01T14:05:24.559Z,1.73
2018-03-01T14:07:51.947Z,1.60
2018-03-01T14:10:19.347Z,1.67
2018-03-01T14:12:48.070Z,1.77
2018-03-01T14:15:15.458Z,1.60
2018-03-01T14:17:45.379Z,1.53
2018-03-01T14:20:18.391Z,2.10
2018-03-01T14:25:47.352Z,2.47
2018-03-01T14:28:20.308Z,2.17
2018-03-01T14:30:47.748Z,2.10
2018-03-01T14:33:15.084Z,2.00
2018-03-01T14:35:42.513Z,2.27
2018-03-01T14:38:09.903Z,2.10
2018-03-01T14:40:37.303Z,1.90
2018-03-01T14:43:04.690Z,2.63
2018-03-01T14:45:32.135Z,2.40
2018-03-01T14:47:59.519Z,2.00
2018-03-01T14:50:26.916Z,2.00
2018-03-01T14:52:54.295Z,1.80
2018-03-01T14:55:21.695Z,2.23
2018-03-01T14:57:49.074Z,2.30
2018-03-01T15:00:16.475Z,1.60
2018-03-01T15:02:43.914Z,1.40
2018-03-01T15:05:11.391Z,1.90
2018-03-01T15:07:38.775Z,2.13
2018-03-01T15:10:06.257Z,1.80
2018-03-01T15:12:33.574Z,1.93
2018-03-01T15:15:01.095Z,2.40
2018-03-01T15:17:28.497Z,1.90
2018-03-01T15:19:55.902Z,2.07
2018-03-01T15:22:23.296Z,2.40
2018-03-01T15:24:50.684Z,2.23
2018-03-01T15:27:18.066Z,2.50
2018-03-01T15:29:45.534Z,1.83
2018-03-01T15:32:12.948Z,2.97
2018-03-01T15:34:40.344Z,2.60
2018-03-01T15:37:07.726Z,1.93
2018-03-01T15:39:35.123Z,2.50
2018-03-01T15:42:02.635Z,2.30
2018-03-01T15:44:30.054Z,2.13
2018-03-01T15:46:57.522Z,3.23
2018-03-01T15:49:25.380Z,3.43
2018-03-01T15:51:52.752Z,1.90
2018-03-01T15:54:20.167Z,2.00
2018-03-01T15:56:47.536Z,2.80
2018-03-01T15:59:14.925Z,4.00
2018-03-01T16:01:42.387Z,1.80
2018-03-01T16:04:09.754Z,2.53
2018-03-01T16:06:37.155Z,2.30
2018-03-01T16:09:04.543Z,3.70
2018-03-01T16:11:31.943Z,3.03
2018-03-01T16:13:59.332Z,3.10
2018-03-01T16:16:26.805Z,2.53
2018-03-01T16:18:54.182Z,3.67
2018-03-01T16:21:21.619Z,3.10
2018-03-01T16:23:49.031Z,2.83
2018-03-01T16:26:16.426Z,2.40
2018-03-01T16:28:43.885Z,3.17
2018-03-01T16:31:11.290Z,2.03
2018-03-01T16:33:38.671Z,1.80
2018-03-01T16:36:06.060Z,2.10
2018-03-01T16:38:33.444Z,2.27
2018-03-01T16:41:00.854Z,2.20
2018-03-01T16:43:28.238Z,2.40
2018-03-01T16:45:55.636Z,1.80
2018-03-01T16:48:23.027Z,1.83
2018-03-01T16:50:50.414Z,2.57
2018-03-01T16:53:17.811Z,1.73
2018-03-01T16:55:45.290Z,2.03
2018-03-01T16:58:12.671Z,1.83
2018-03-01T17:00:40.067Z,1.63
2018-03-01T17:03:07.462Z,1.70
2018-03-01T17:05:34.912Z,2.60
2018-03-01T17:08:02.363Z,1.77
2018-03-01T17:10:29.747Z,1.80
2018-03-01T17:12:57.138Z,3.03
2018-03-01T17:15:24.523Z,2.07
2018-03-01T17:17:51.993Z,2.00
2018-03-01T17:20:19.387Z,1.73
2018-03-01T17:22:46.771Z,1.37
2018-03-01T17:25:14.146Z,1.90
2018-03-01T17:27:41.534Z,2.67
2018-03-01T17:30:08.926Z,1.63
2018-03-01T17:32:36.322Z,1.90
2018-03-01T17:35:03.700Z,1.80
2018-03-01T17:37:31.095Z,2.37
2018-03-01T17:39:58.485Z,2.83
2018-03-01T17:42:25.875Z,2.43
2018-03-01T17:44:53.286Z,1.97
2018-03-01T17:47:20.748Z,1.87
2018-03-01T17:49:48.134Z,2.20
2018-03-01T17:52:15.522Z,1.63
2018-03-01T17:54:43.031Z,1.40
2018-03-01T17:57:10.378Z,1.80
2018-03-01T17:59:37.759Z,2.50
2018-03-01T18:02:05.153Z,1.57
2018-03-01T18:04:32.535Z,2.10
2018-03-01T18:06:59.927Z,1.73
2018-03-01T18:09:27.330Z,1.57
2018-03-01T18:11:54.738Z,2.33
2018-03-01T18:14:22.127Z,2.30
2018-03-01T18:16:49.520Z,1.97
2018-03-01T18:19:16.901Z,2.13
2018-03-01T18:21:44.315Z,3.10
2018-03-01T18:24:11.697Z,1.93
2018-03-01T18:26:39.091Z,2.73
2018-03-01T18:29:06.476Z,2.47
2018-03-01T18:31:33.926Z,2.60
2018-03-01T18:34:01.382Z,2.43
2018-03-01T18:36:28.775Z,2.10
2018-03-01T18:38:56.162Z,2.60
2018-03-01T18:41:23.560Z,2.47
2018-03-01T18:43:50.942Z,1.63
2018-03-01T18:46:18.362Z,2.33
2018-03-01T18:48:45.825Z,3.10
2018-03-01T18:51:13.202Z,2.57
2018-03-01T18:53:40.594Z,2.50
2018-03-01T18:56:07.982Z,1.73
2018-03-01T18:58:35.436Z,2.90
2018-03-01T19:01:02.839Z,3.35
2018-03-01T19:03:30.233Z,2.57
2018-03-01T19:05:57.642Z,3.37
2018-03-01T19:08:25.030Z,2.20
2018-03-01T19:10:52.524Z,2.83
2018-03-01T19:13:19.903Z,3.07
2018-03-01T19:15:47.381Z,3.63
2018-03-01T19:18:14.839Z,2.97
2018-03-01T19:20:42.246Z,2.83
2018-03-01T19:23:09.659Z,2.10
2018-03-01T19:25:37.043Z,3.27
2018-03-01T19:28:04.459Z,2.47
2018-03-01T19:30:31.846Z,3.22
2018-03-01T19:32:59.242Z,3.23
2018-03-01T19:35:26.732Z,3.10
2018-03-01T19:37:54.136Z,2.90
2018-03-01T19:40:21.530Z,3.67
2018-03-01T19:42:48.931Z,3.10
2018-03-01T19:45:16.337Z,2.90
2018-03-01T19:47:43.737Z,2.67
2018-03-01T19:50:11.134Z,3.80
2018-03-01T19:52:38.521Z,2.40
2018-03-01T19:55:05.995Z,3.87
2018-03-01T19:57:33.367Z,3.50
2018-03-01T20:00:00.754Z,3.43
2018-03-01T20:02:28.159Z,2.90
2018-03-01T20:04:55.559Z,3.60
2018-03-01T20:07:23.050Z,3.73
2018-03-01T20:09:50.456Z,2.83
2018-03-01T20:12:17.858Z,2.80
2018-03-01T20:14:45.244Z,1.63
2018-03-01T20:17:12.641Z,2.97
2018-03-01T20:19:40.023Z,2.30
2018-03-01T20:22:07.446Z,3.87
2018-03-01T20:24:35.003Z,3.20
2018-03-01T20:27:02.409Z,2.67
2018-03-01T20:29:29.795Z,2.80
2018-03-01T20:31:57.230Z,3.10
2018-03-01T20:34:24.615Z,3.90
2018-03-01T20:36:52.026Z,2.17
2018-03-01T20:39:19.449Z,4.80
2018-03-01T20:41:46.834Z,2.70
2018-03-01T20:44:14.259Z,3.43
2018-03-01T20:46:41.638Z,2.33
2018-03-01T20:49:09.042Z,3.47
2018-03-01T20:51:36.431Z,2.67
2018-03-01T20:54:03.832Z,2.90
2018-03-01T20:56:31.267Z,2.20
2018-03-01T20:58:58.671Z,4.07
2018-03-01T21:01:26.146Z,2.70
2018-03-01T21:03:53.539Z,2.90
2018-03-01T21:06:20.935Z,1.60
2018-03-01T21:08:48.327Z,2.73
2018-03-01T21:11:15.746Z,2.40
2018-03-01T21:13:43.225Z,2.57
2018-03-01T21:16:10.729Z,1.90
2018-03-01T21:18:38.123Z,2.87
2018-03-01T21:21:05.526Z,1.80
2018-03-01T21:23:32.918Z,2.30
2018-03-01T21:26:00.395Z,2.83
2018-03-01T21:28:27.906Z,2.70
2018-03-01T21:30:55.242Z,2.77
2018-03-01T21:33:22.643Z,2.83
2018-03-01T21:35:50.044Z,2.47
2018-03-01T21:38:17.443Z,2.97
2018-03-01T21:40:44.823Z,2.53
2018-03-01T21:43:12.227Z,3.53
2018-03-01T21:45:39.655Z,2.07
2018-03-01T21:48:07.038Z,1.73
2018-03-01T21:50:34.427Z,3.23
2018-03-01T21:53:01.831Z,3.70
2018-03-01T21:55:29.215Z,3.50
2018-03-01T21:57:56.615Z,4.03
2018-03-01T22:00:24.117Z,2.53
2018-03-01T22:02:51.510Z,4.07
2018-03-01T22:05:18.907Z,2.80
2018-03-01T22:07:46.304Z,3.67
2018-03-01T22:10:13.683Z,2.73
2018-03-01T22:12:41.072Z,3.80
2018-03-01T22:15:08.463Z,3.73
2018-03-01T22:17:35.850Z,2.73
2018-03-01T22:20:03.269Z,2.40
2018-03-01T22:22:30.687Z,3.43
2018-03-01T22:24:58.071Z,3.40
2018-03-01T22:27:25.459Z,4.70
2018-03-01T22:29:52.943Z,4.30
2018-03-01T22:32:20.345Z,3.40
2018-03-01T22:34:47.727Z,3.10
2018-03-01T22:37:15.208Z,2.93
2018-03-01T22:39:42.690Z,4.20
2018-03-01T22:42:10.086Z,4.00
2018-03-01T22:44:37.466Z,3.23
2018-03-01T22:47:04.860Z,3.53
2018-03-01T22:49:32.290Z,3.90
2018-03-01T22:51:59.677Z,4.07
2018-03-01T22:54:28.005Z,3.20
2018-03-01T22:56:55.378Z,3.40
2018-03-01T22:59:22.779Z,3.90
2018-03-01T23:01:50.181Z,2.40
2018-03-01T23:04:17.626Z,3.53
2018-03-01T23:06:45.016Z,2.80
2018-03-01T23:09:12.416Z,3.67
2018-03-01T23:11:39.807Z,1.90
2018-03-01T23:14:07.198Z,4.40
2018-03-01T23:16:34.600Z,3.27
2018-03-01T23:19:01.995Z,4.93
2018-03-01T23:21:29.387Z,4.53
2018-03-01T23:23:56.785Z,3.70
2018-03-01T23:26:24.176Z,4.93
2018-03-01T23:28:51.574Z,3.37
2018-03-01T23:31:18.962Z,4.40
2018-03-01T23:33:46.366Z,3.20
2018-03-01T23:36:13.743Z,5.50
2018-03-01T23:38:41.243Z,4.90
2018-03-01T23:41:08.635Z,5.30
2018-03-01T23:43:36.120Z,5.30
2018-03-01T23:46:03.515Z,4.50
2018-03-01T23:48:30.914Z,3.47
2018-03-01T23:50:58.305Z,4.00
2018-03-01T23:53:25.714Z,5.00
2018-03-01T23:55:53.183Z,5.33
2018-03-01T23:58:20.634Z,3.40
